Terminal Aerodrome Forecast
Issued by NWS

Home | Current Version | Previous Version | Text Only | Print | Product List | Glossary On
Versions: 1 2 3 4 5 6 7 8 9 10 11 12 13
000
FTUS43 KEAX 250520
TAFSTJ
TAF
KSTJ 250520Z 2506/2606 VRB04KT P6SM -SHRA VCTS BKN035CB
     FM250800 27005KT P6SM VCSH BKN035
     FM251400 33011KT P6SM OVC040
     FM252200 31007KT P6SM SCT150=

USA.gov is the U.S. government's official web portal to all federal, state and local government web resources and services.